sensor_id;sensor_type;location;lat;lon;timestamp;pressure;altitude;pressure_sealevel;temperature;humidity
54882;BME280;40775;51.448;4.742;2023-03-16T00:02:10;101634.09;;;7.57;100.00
54882;BME280;40775;51.448;4.742;2023-03-16T00:04:38;101631.53;;;7.59;100.00
54882;BME280;40775;51.448;4.742;2023-03-16T00:07:10;101636.91;;;7.62;100.00
54882;BME280;40775;51.448;4.742;2023-03-16T00:09:39;101636.06;;;7.63;100.00
54882;BME280;40775;51.448;4.742;2023-03-16T00:12:15;101627.22;;;7.59;100.00
54882;BME280;40775;51.448;4.742;2023-03-16T00:14:46;101631.75;;;7.63;100.00
54882;BME280;40775;51.448;4.742;2023-03-16T00:17:17;101621.91;;;7.58;100.00
54882;BME280;40775;51.448;4.742;2023-03-16T00:19:49;101626.38;;;7.60;100.00
54882;BME280;40775;51.448;4.742;2023-03-16T00:22:26;101624.03;;;7.66;100.00
54882;BME280;40775;51.448;4.742;2023-03-16T00:24:54;101626.00;;;7.70;100.00
54882;BME280;40775;51.448;4.742;2023-03-16T00:27:23;101619.81;;;7.68;100.00
54882;BME280;40775;51.448;4.742;2023-03-16T00:29:53;101619.94;;;7.71;100.00
54882;BME280;40775;51.448;4.742;2023-03-16T00:32:25;101607.34;;;7.63;100.00
54882;BME280;40775;51.448;4.742;2023-03-16T00:34:53;101618.03;;;7.67;100.00
54882;BME280;40775;51.448;4.742;2023-03-16T00:37:22;101614.47;;;7.67;100.00
54882;BME280;40775;51.448;4.742;2023-03-16T00:39:50;101604.78;;;7.64;100.00
54882;BME280;40775;51.448;4.742;2023-03-16T00:42:18;101609.41;;;7.70;100.00
54882;BME280;40775;51.448;4.742;2023-03-16T00:44:46;101606.50;;;7.64;100.00
54882;BME280;40775;51.448;4.742;2023-03-16T00:47:13;101608.22;;;7.63;100.00
54882;BME280;40775;51.448;4.742;2023-03-16T00:49:43;101608.34;;;7.66;100.00
54882;BME280;40775;51.448;4.742;2023-03-16T00:52:12;101612.09;;;7.71;100.00
54882;BME280;40775;51.448;4.742;2023-03-16T00:54:46;101590.16;;;7.68;100.00
54882;BME280;40775;51.448;4.742;2023-03-16T00:57:16;101586.84;;;7.72;100.00
54882;BME280;40775;51.448;4.742;2023-03-16T00:59:48;101599.63;;;7.66;100.00
54882;BME280;40775;51.448;4.742;2023-03-16T01:02:17;101581.75;;;7.75;100.00
54882;BME280;40775;51.448;4.742;2023-03-16T01:04:45;101578.59;;;7.63;100.00
54882;BME280;40775;51.448;4.742;2023-03-16T01:07:13;101579.97;;;7.74;100.00
54882;BME280;40775;51.448;4.742;2023-03-16T01:09:41;101572.81;;;7.70;100.00
54882;BME280;40775;51.448;4.742;2023-03-16T01:12:15;101569.38;;;7.71;100.00
54882;BME280;40775;51.448;4.742;2023-03-16T01:14:43;101559.69;;;7.68;100.00
54882;BME280;40775;51.448;4.742;2023-03-16T01:17:13;101555.19;;;7.66;100.00
54882;BME280;40775;51.448;4.742;2023-03-16T01:19:40;101556.19;;;7.68;100.00
54882;BME280;40775;51.448;4.742;2023-03-16T01:22:08;101552.69;;;7.67;100.00
54882;BME280;40775;51.448;4.742;2023-03-16T01:24:37;101546.81;;;7.73;100.00
54882;BME280;40775;51.448;4.742;2023-03-16T01:27:04;101549.25;;;7.68;100.00
54882;BME280;40775;51.448;4.742;2023-03-16T01:29:32;101553.13;;;7.78;100.00
54882;BME280;40775;51.448;4.742;2023-03-16T01:32:00;101563.28;;;7.70;100.00
54882;BME280;40775;51.448;4.742;2023-03-16T01:34:28;101554.47;;;7.68;100.00
54882;BME280;40775;51.448;4.742;2023-03-16T01:36:55;101557.09;;;7.68;100.00
54882;BME280;40775;51.448;4.742;2023-03-16T01:39:22;101558.03;;;7.70;100.00
54882;BME280;40775;51.448;4.742;2023-03-16T01:41:49;101559.75;;;7.70;100.00
54882;BME280;40775;51.448;4.742;2023-03-16T01:44:26;101555.97;;;7.63;100.00
54882;BME280;40775;51.448;4.742;2023-03-16T01:47:00;101550.53;;;7.59;100.00
54882;BME280;40775;51.448;4.742;2023-03-16T01:49:32;101560.44;;;7.66;100.00
54882;BME280;40775;51.448;4.742;2023-03-16T01:52:18;101549.66;;;7.58;100.00
54882;BME280;40775;51.448;4.742;2023-03-16T01:55:06;101539.00;;;7.54;100.00
54882;BME280;40775;51.448;4.742;2023-03-16T01:57:38;101543.28;;;7.52;100.00
54882;BME280;40775;51.448;4.742;2023-03-16T02:00:16;101541.44;;;7.49;100.00
54882;BME280;40775;51.448;4.742;2023-03-16T02:02:51;101532.50;;;7.44;100.00
54882;BME280;40775;51.448;4.742;2023-03-16T02:05:27;101544.81;;;7.47;100.00
54882;BME280;40775;51.448;4.742;2023-03-16T02:07:57;101537.78;;;7.46;100.00
54882;BME280;40775;51.448;4.742;2023-03-16T02:10:26;101538.69;;;7.46;100.00
54882;BME280;40775;51.448;4.742;2023-03-16T02:12:55;101525.50;;;7.43;100.00
54882;BME280;40775;51.448;4.742;2023-03-16T02:15:24;101528.94;;;7.42;100.00
54882;BME280;40775;51.448;4.742;2023-03-16T02:17:51;101520.34;;;7.44;100.00
54882;BME280;40775;51.448;4.742;2023-03-16T02:23:28;101514.28;;;7.46;100.00
54882;BME280;40775;51.448;4.742;2023-03-16T02:26:22;101516.75;;;7.42;100.00
54882;BME280;40775;51.448;4.742;2023-03-16T02:31:43;101507.28;;;7.44;100.00
54882;BME280;40775;51.448;4.742;2023-03-16T02:34:13;101500.25;;;7.43;100.00
54882;BME280;40775;51.448;4.742;2023-03-16T02:36:43;101502.88;;;7.43;100.00
54882;BME280;40775;51.448;4.742;2023-03-16T02:39:11;101502.88;;;7.43;100.00
54882;BME280;40775;51.448;4.742;2023-03-16T02:41:39;101499.50;;;7.46;100.00
54882;BME280;40775;51.448;4.742;2023-03-16T02:44:16;101500.03;;;7.39;100.00
54882;BME280;40775;51.448;4.742;2023-03-16T02:46:47;101500.31;;;7.45;100.00
54882;BME280;40775;51.448;4.742;2023-03-16T02:49:50;101502.75;;;7.40;100.00
54882;BME280;40775;51.448;4.742;2023-03-16T02:52:17;101506.09;;;7.38;100.00
54882;BME280;40775;51.448;4.742;2023-03-16T02:54:44;101500.66;;;7.33;100.00
54882;BME280;40775;51.448;4.742;2023-03-16T02:57:11;101494.16;;;7.43;100.00
54882;BME280;40775;51.448;4.742;2023-03-16T02:59:38;101499.44;;;7.44;100.00
54882;BME280;40775;51.448;4.742;2023-03-16T03:02:05;101498.31;;;7.39;100.00
54882;BME280;40775;51.448;4.742;2023-03-16T03:04:34;101502.81;;;7.42;100.00
54882;BME280;40775;51.448;4.742;2023-03-16T03:07:01;101494.16;;;7.43;100.00
54882;BME280;40775;51.448;4.742;2023-03-16T03:09:31;101487.88;;;7.39;100.00
54882;BME280;40775;51.448;4.742;2023-03-16T03:11:59;101496.53;;;7.38;100.00
54882;BME280;40775;51.448;4.742;2023-03-16T03:14:26;101496.53;;;7.38;100.00
54882;BME280;40775;51.448;4.742;2023-03-16T03:16:54;101484.22;;;7.36;100.00
54882;BME280;40775;51.448;4.742;2023-03-16T03:19:21;101474.69;;;7.36;100.00
54882;BME280;40775;51.448;4.742;2023-03-16T03:21:49;101479.38;;;7.43;100.00
54882;BME280;40775;51.448;4.742;2023-03-16T03:24:16;101476.53;;;7.39;100.00
54882;BME280;40775;51.448;4.742;2023-03-16T03:26:44;101474.75;;;7.38;100.00
54882;BME280;40775;51.448;4.742;2023-03-16T03:29:11;101481.75;;;7.39;100.00
54882;BME280;40775;51.448;4.742;2023-03-16T03:31:38;101473.91;;;7.39;100.00
54882;BME280;40775;51.448;4.742;2023-03-16T03:34:05;101476.69;;;7.42;100.00
54882;BME280;40775;51.448;4.742;2023-03-16T03:36:33;101475.50;;;7.35;100.00
54882;BME280;40775;51.448;4.742;2023-03-16T03:39:01;101465.28;;;7.40;100.00
54882;BME280;40775;51.448;4.742;2023-03-16T03:41:32;101464.44;;;7.41;100.00
54882;BME280;40775;51.448;4.742;2023-03-16T03:43:59;101460.78;;;7.37;100.00
54882;BME280;40775;51.448;4.742;2023-03-16T03:46:26;101457.28;;;7.37;100.00
54882;BME280;40775;51.448;4.742;2023-03-16T03:48:54;101455.50;;;7.36;100.00
54882;BME280;40775;51.448;4.742;2023-03-16T03:51:21;101459.00;;;7.36;100.00
54882;BME280;40775;51.448;4.742;2023-03-16T03:53:48;101452.75;;;7.33;100.00
54882;BME280;40775;51.448;4.742;2023-03-16T03:56:15;101446.00;;;7.38;100.00
54882;BME280;40775;51.448;4.742;2023-03-16T03:58:42;101448.63;;;7.38;100.00
54882;BME280;40775;51.448;4.742;2023-03-16T04:01:09;101445.88;;;7.35;100.00
54882;BME280;40775;51.448;4.742;2023-03-16T04:03:36;101442.50;;;7.37;100.00
54882;BME280;40775;51.448;4.742;2023-03-16T04:06:03;101435.44;;;7.35;100.00
54882;BME280;40775;51.448;4.742;2023-03-16T04:08:33;101430.09;;;7.32;100.00
54882;BME280;40775;51.448;4.742;2023-03-16T04:11:00;101427.34;;;7.29;100.00
54882;BME280;40775;51.448;4.742;2023-03-16T04:13:27;101438.75;;;7.31;100.00
54882;BME280;40775;51.448;4.742;2023-03-16T04:15:59;101430.91;;;7.31;100.00
54882;BME280;40775;51.448;4.742;2023-03-16T04:18:30;101432.44;;;7.26;100.00
54882;BME280;40775;51.448;4.742;2023-03-16T04:21:05;101428.31;;;7.31;100.00
54882;BME280;40775;51.448;4.742;2023-03-16T04:23:33;101430.97;;;7.32;100.00
54882;BME280;40775;51.448;4.742;2023-03-16T04:26:00;101427.53;;;7.33;100.00
54882;BME280;40775;51.448;4.742;2023-03-16T04:28:27;101428.38;;;7.32;100.00
54882;BME280;40775;51.448;4.742;2023-03-16T04:30:54;101424.94;;;7.33;100.00
54882;BME280;40775;51.448;4.742;2023-03-16T04:33:22;101418.63;;;7.28;100.00
54882;BME280;40775;51.448;4.742;2023-03-16T04:35:49;101409.25;;;7.33;100.00
54882;BME280;40775;51.448;4.742;2023-03-16T04:38:16;101411.09;;;7.36;100.00
54882;BME280;40775;51.448;4.742;2023-03-16T04:40:43;101418.03;;;7.35;100.00
54882;BME280;40775;51.448;4.742;2023-03-16T04:43:10;101417.03;;;7.32;100.00
54882;BME280;40775;51.448;4.742;2023-03-16T04:45:39;101417.91;;;7.32;100.00
54882;BME280;40775;51.448;4.742;2023-03-16T04:48:07;101404.78;;;7.31;100.00
54882;BME280;40775;51.448;4.742;2023-03-16T04:50:34;101411.03;;;7.34;100.00
54882;BME280;40775;51.448;4.742;2023-03-16T04:53:01;101403.13;;;7.33;100.00
54882;BME280;40775;51.448;4.742;2023-03-16T04:55:40;101402.19;;;7.31;100.00
54882;BME280;40775;51.448;4.742;2023-03-16T04:58:07;101405.56;;;7.28;100.00
54882;BME280;40775;51.448;4.742;2023-03-16T05:00:34;101397.84;;;7.31;100.00
54882;BME280;40775;51.448;4.742;2023-03-16T05:03:01;101403.13;;;7.33;100.00
54882;BME280;40775;51.448;4.742;2023-03-16T05:05:30;101410.84;;;7.30;100.00
54882;BME280;40775;51.448;4.742;2023-03-16T05:07:57;101407.00;;;7.41;100.00
54882;BME280;40775;51.448;4.742;2023-03-16T05:10:24;101396.25;;;7.35;100.00
54882;BME280;40775;51.448;4.742;2023-03-16T05:12:53;101406.66;;;7.33;100.00
54882;BME280;40775;51.448;4.742;2023-03-16T05:15:20;101396.97;;;7.31;100.00
54882;BME280;40775;51.448;4.742;2023-03-16T05:17:47;101395.78;;;7.43;100.00
54882;BME280;40775;51.448;4.742;2023-03-16T05:20:14;101387.53;;;7.34;100.00
54882;BME280;40775;51.448;4.742;2023-03-16T05:22:44;101381.22;;;7.29;100.00
54882;BME280;40775;51.448;4.742;2023-03-16T05:25:12;101378.69;;;7.31;100.00
54882;BME280;40775;51.448;4.742;2023-03-16T05:27:46;101374.47;;;7.34;100.00
54882;BME280;40775;51.448;4.742;2023-03-16T05:30:15;101377.97;;;7.35;100.00
54882;BME280;40775;51.448;4.742;2023-03-16T05:32:42;101376.19;;;7.34;100.00
54882;BME280;40775;51.448;4.742;2023-03-16T05:35:11;101374.59;;;7.37;100.00
54882;BME280;40775;51.448;4.742;2023-03-16T05:37:42;101373.41;;;7.29;100.00
54882;BME280;40775;51.448;4.742;2023-03-16T05:40:12;101379.75;;;7.36;100.00
54882;BME280;40775;51.448;4.742;2023-03-16T05:42:48;101381.53;;;7.37;100.00
54882;BME280;40775;51.448;4.742;2023-03-16T05:45:19;101373.53;;;7.32;100.00
54882;BME280;40775;51.448;4.742;2023-03-16T05:47:48;101373.75;;;7.38;100.00
54882;BME280;40775;51.448;4.742;2023-03-16T05:50:19;101372.94;;;7.39;100.00
54882;BME280;40775;51.448;4.742;2023-03-16T05:52:46;101371.97;;;7.37;100.00
54882;BME280;40775;51.448;4.742;2023-03-16T05:55:19;101361.53;;;7.37;100.00
54882;BME280;40775;51.448;4.742;2023-03-16T05:57:48;101359.63;;;7.33;100.00
54882;BME280;40775;51.448;4.742;2023-03-16T06:00:19;101356.59;;;7.43;100.00
54882;BME280;40775;51.448;4.742;2023-03-16T06:02:48;101364.91;;;7.35;100.00
54882;BME280;40775;51.448;4.742;2023-03-16T06:05:18;101362.31;;;7.35;100.00
54882;BME280;40775;51.448;4.742;2023-03-16T06:07:47;101370.97;;;7.34;100.00
54882;BME280;40775;51.448;4.742;2023-03-16T06:10:16;101367.88;;;7.42;100.00
54882;BME280;40775;51.448;4.742;2023-03-16T06:12:44;101366.69;;;7.36;100.00
54882;BME280;40775;51.448;4.742;2023-03-16T06:15:11;101363.41;;;7.40;100.00
54882;BME280;40775;51.448;4.742;2023-03-16T06:17:39;101364.84;;;7.33;100.00
54882;BME280;40775;51.448;4.742;2023-03-16T06:20:09;101355.47;;;7.38;100.00
54882;BME280;40775;51.448;4.742;2023-03-16T06:22:39;101356.19;;;7.34;100.00
54882;BME280;40775;51.448;4.742;2023-03-16T06:25:08;101368.47;;;7.37;100.00
54882;BME280;40775;51.448;4.742;2023-03-16T06:27:36;101362.81;;;7.47;100.00
54882;BME280;40775;51.448;4.742;2023-03-16T06:30:08;101363.41;;;7.40;100.00
54882;BME280;40775;51.448;4.742;2023-03-16T06:32:36;101364.38;;;7.42;100.00
54882;BME280;40775;51.448;4.742;2023-03-16T06:35:04;101355.06;;;7.49;100.00
54882;BME280;40775;51.448;4.742;2023-03-16T06:37:31;101349.53;;;7.41;100.00
54882;BME280;40775;51.448;4.742;2023-03-16T06:39:59;101351.50;;;7.47;100.00
54882;BME280;40775;51.448;4.742;2023-03-16T06:42:26;101347.47;;;7.55;100.00
54882;BME280;40775;51.448;4.742;2023-03-16T06:44:53;101346.50;;;7.53;100.00
54882;BME280;40775;51.448;4.742;2023-03-16T06:47:20;101351.31;;;10.09;100.00
54882;BME280;40775;51.448;4.742;2023-03-16T06:49:47;101331.84;;;11.26;100.00
54882;BME280;40775;51.448;4.742;2023-03-16T06:52:14;101329.19;;;11.96;100.00
54882;BME280;40775;51.448;4.742;2023-03-16T06:54:41;101323.03;;;12.36;100.00
54882;BME280;40775;51.448;4.742;2023-03-16T06:57:08;101318.41;;;12.68;100.00
54882;BME280;40775;51.448;4.742;2023-03-16T06:59:35;101297.56;;;12.81;100.00
54882;BME280;40775;51.448;4.742;2023-03-16T07:02:02;101306.72;;;13.01;100.00
54882;BME280;40775;51.448;4.742;2023-03-16T07:04:29;101306.88;;;13.10;100.00
54882;BME280;40775;51.448;4.742;2023-03-16T07:06:56;101310.59;;;13.20;100.00
54882;BME280;40775;51.448;4.742;2023-03-16T07:09:23;101299.25;;;13.24;100.00
54882;BME280;40775;51.448;4.742;2023-03-16T07:11:50;101302.91;;;13.34;100.00
54882;BME280;40775;51.448;4.742;2023-03-16T07:14:18;101298.59;;;13.39;100.00
54882;BME280;40775;51.448;4.742;2023-03-16T07:16:46;101298.69;;;13.43;100.00
54882;BME280;40775;51.448;4.742;2023-03-16T07:19:13;101304.03;;;13.48;100.00
54882;BME280;40775;51.448;4.742;2023-03-16T07:21:40;101304.13;;;13.54;100.00
54882;BME280;40775;51.448;4.742;2023-03-16T07:24:09;101295.38;;;13.56;100.00
54882;BME280;40775;51.448;4.742;2023-03-16T07:26:37;101298.94;;;13.60;100.00
54882;BME280;40775;51.448;4.742;2023-03-16T07:29:04;101299.97;;;13.70;100.00
54882;BME280;40775;51.448;4.742;2023-03-16T07:31:33;101300.03;;;13.73;100.00
54882;BME280;40775;51.448;4.742;2023-03-16T07:34:02;101301.84;;;13.77;100.00
54882;BME280;40775;51.448;4.742;2023-03-16T07:36:29;101309.78;;;13.78;100.00
54882;BME280;40775;51.448;4.742;2023-03-16T07:38:57;101301.88;;;13.80;100.00
54882;BME280;40775;51.448;4.742;2023-03-16T07:41:24;101294.88;;;13.83;100.00
54882;BME280;40775;51.448;4.742;2023-03-16T07:43:51;101308.09;;;13.83;100.00
54882;BME280;40775;51.448;4.742;2023-03-16T07:46:19;101299.28;;;13.84;100.00
54882;BME280;40775;51.448;4.742;2023-03-16T07:48:46;101301.09;;;13.87;100.00
54882;BME280;40775;51.448;4.742;2023-03-16T07:51:13;101311.69;;;13.90;100.00
54882;BME280;40775;51.448;4.742;2023-03-16T07:53:40;101312.59;;;13.92;100.00
54882;BME280;40775;51.448;4.742;2023-03-16T07:56:08;101312.56;;;13.90;100.00
54882;BME280;40775;51.448;4.742;2023-03-16T07:58:35;101314.34;;;13.91;100.00
54882;BME280;40775;51.448;4.742;2023-03-16T08:01:02;101311.72;;;13.93;100.00
54882;BME280;40775;51.448;4.742;2023-03-16T08:03:29;101309.94;;;13.90;100.00
54882;BME280;40775;51.448;4.742;2023-03-16T08:05:58;101307.31;;;13.92;100.00
54882;BME280;40775;51.448;4.742;2023-03-16T08:08:25;101310.84;;;13.94;100.00
54882;BME280;40775;51.448;4.742;2023-03-16T08:10:52;101314.47;;;13.98;100.00
54882;BME280;40775;51.448;4.742;2023-03-16T08:13:22;101306.53;;;13.98;100.00
54882;BME280;40775;51.448;4.742;2023-03-16T08:15:51;101315.38;;;14.00;100.00
54882;BME280;40775;51.448;4.742;2023-03-16T08:18:25;101323.28;;;14.00;100.00
54882;BME280;40775;51.448;4.742;2023-03-16T08:20:52;101317.13;;;14.01;100.00
54882;BME280;40775;51.448;4.742;2023-03-16T08:23:21;101312.72;;;14.00;100.00
54882;BME280;40775;51.448;4.742;2023-03-16T08:25:55;101300.44;;;14.02;100.00
54882;BME280;40775;51.448;4.742;2023-03-16T08:28:23;101308.31;;;13.99;100.00
54882;BME280;40775;51.448;4.742;2023-03-16T08:30:53;101305.56;;;13.94;100.00
54882;BME280;40775;51.448;4.742;2023-03-16T08:33:21;101307.38;;;13.97;100.00
54882;BME280;40775;51.448;4.742;2023-03-16T08:35:49;101302.16;;;14.00;100.00
54882;BME280;40775;51.448;4.742;2023-03-16T08:38:16;101294.31;;;14.04;100.00
54882;BME280;40775;51.448;4.742;2023-03-16T08:40:45;101303.09;;;14.05;100.00
54882;BME280;40775;51.448;4.742;2023-03-16T08:43:15;101296.94;;;14.04;100.00
54882;BME280;40775;51.448;4.742;2023-03-16T08:45:47;101296.97;;;14.06;100.00
54882;BME280;40775;51.448;4.742;2023-03-16T08:48:14;101288.16;;;14.05;100.00
54882;BME280;40775;51.448;4.742;2023-03-16T08:50:42;101301.19;;;13.95;100.00
54882;BME280;40775;51.448;4.742;2023-03-16T08:53:11;101296.00;;;13.99;100.00
54882;BME280;40775;51.448;4.742;2023-03-16T08:55:40;101296.91;;;14.01;100.00
54882;BME280;40775;51.448;4.742;2023-03-16T08:58:08;101295.97;;;13.98;100.00
54882;BME280;40775;51.448;4.742;2023-03-16T09:00:36;101296.78;;;13.95;100.00
54882;BME280;40775;51.448;4.742;2023-03-16T09:03:05;101295.94;;;13.96;100.00
54882;BME280;40775;51.448;4.742;2023-03-16T09:05:33;101287.91;;;13.88;100.00
54882;BME280;40775;51.448;4.742;2023-03-16T09:08:00;101281.81;;;13.92;100.00
54882;BME280;40775;51.448;4.742;2023-03-16T09:10:27;101287.09;;;13.92;100.00
54882;BME280;40775;51.448;4.742;2023-03-16T09:12:55;101289.72;;;13.92;100.00
54882;BME280;40775;51.448;4.742;2023-03-16T09:15:22;101281.91;;;13.99;100.00
54882;BME280;40775;51.448;4.742;2023-03-16T09:17:49;101281.94;;;14.02;100.00
54882;BME280;40775;51.448;4.742;2023-03-16T09:20:17;101265.22;;;14.01;100.00
54882;BME280;40775;51.448;4.742;2023-03-16T09:22:54;101274.06;;;14.03;100.00
54882;BME280;40775;51.448;4.742;2023-03-16T09:25:22;101266.13;;;14.02;100.00
54882;BME280;40775;51.448;4.742;2023-03-16T09:27:50;101266.16;;;14.05;100.00
54882;BME280;40775;51.448;4.742;2023-03-16T09:30:17;101266.16;;;14.06;100.00
54882;BME280;40775;51.448;4.742;2023-03-16T09:32:44;101263.38;;;13.96;100.00
54882;BME280;40775;51.448;4.742;2023-03-16T09:35:14;101268.75;;;14.02;100.00
54882;BME280;40775;51.448;4.742;2023-03-16T09:37:41;101263.47;;;14.00;100.00
54882;BME280;40775;51.448;4.742;2023-03-16T09:40:25;101258.94;;;13.93;100.00
54882;BME280;40775;51.448;4.742;2023-03-16T09:46:11;101259.91;;;13.98;100.00
54882;BME280;40775;51.448;4.742;2023-03-16T09:48:40;101260.84;;;14.02;100.00
54882;BME280;40775;51.448;4.742;2023-03-16T09:57:38;101251.25;;;14.10;100.00
54882;BME280;40775;51.448;4.742;2023-03-16T10:00:17;101253.91;;;14.13;100.00
54882;BME280;40775;51.448;4.742;2023-03-16T10:05:38;101260.97;;;14.14;100.00
54882;BME280;40775;51.448;4.742;2023-03-16T10:08:21;101248.63;;;14.13;100.00
54882;BME280;40775;51.448;4.742;2023-03-16T10:16:53;101257.50;;;14.18;100.00
54882;BME280;40775;51.448;4.742;2023-03-16T10:19:42;101253.94;;;14.16;100.00
54882;BME280;40775;51.448;4.742;2023-03-16T10:22:29;101245.13;;;14.14;100.00
54882;BME280;40775;51.448;4.742;2023-03-16T10:25:17;101240.81;;;14.20;100.00
54882;BME280;40775;51.448;4.742;2023-03-16T10:27:46;101247.84;;;14.21;100.00
54882;BME280;40775;51.448;4.742;2023-03-16T10:30:28;101236.44;;;14.24;100.00
54882;BME280;40775;51.448;4.742;2023-03-16T10:33:26;101239.06;;;14.24;100.00
54882;BME280;40775;51.448;4.742;2023-03-16T10:36:33;101230.28;;;14.23;100.00
54882;BME280;40775;51.448;4.742;2023-03-16T10:39:06;101230.25;;;14.22;100.00
54882;BME280;40775;51.448;4.742;2023-03-16T10:41:42;101226.78;;;14.25;100.00
54882;BME280;40775;51.448;4.742;2023-03-16T10:44:21;101224.09;;;14.23;100.00
54882;BME280;40775;51.448;4.742;2023-03-16T10:47:04;101203.84;;;14.20;100.00
54882;BME280;40775;51.448;4.742;2023-03-16T10:49:38;101214.47;;;14.25;100.00
54882;BME280;40775;51.448;4.742;2023-03-16T10:52:33;101197.78;;;14.29;100.00
54882;BME280;40775;51.448;4.742;2023-03-16T10:55:10;101196.91;;;14.30;100.00
54882;BME280;40775;51.448;4.742;2023-03-16T10:57:47;101190.75;;;14.28;100.00
54882;BME280;40775;51.448;4.742;2023-03-16T11:00:34;101203.06;;;14.28;100.00
54882;BME280;40775;51.448;4.742;2023-03-16T11:03:19;101211.00;;;14.29;100.00
54882;BME280;40775;51.448;4.742;2023-03-16T11:06:02;101197.75;;;14.26;100.00
54882;BME280;40775;51.448;4.742;2023-03-16T11:08:37;101193.41;;;14.30;100.00
54882;BME280;40775;51.448;4.742;2023-03-16T11:13:46;101182.84;;;14.30;100.00
54882;BME280;40775;51.448;4.742;2023-03-16T11:16:31;101179.31;;;14.29;100.00
54882;BME280;40775;51.448;4.742;2023-03-16T11:19:15;101166.09;;;14.29;100.00
54882;BME280;40775;51.448;4.742;2023-03-16T11:27:25;101169.69;;;14.37;100.00
54882;BME280;40775;51.448;4.742;2023-03-16T11:32:50;101164.41;;;14.37;100.00
54882;BME280;40775;51.448;4.742;2023-03-16T11:42:10;101153.94;;;14.43;100.00
54882;BME280;40775;51.448;4.742;2023-03-16T11:51:31;101142.50;;;14.46;100.00
54882;BME280;40775;51.448;4.742;2023-03-16T11:57:37;101146.94;;;14.50;100.00
54882;BME280;40775;51.448;4.742;2023-03-16T12:03:13;101150.47;;;14.49;100.00
54882;BME280;40775;51.448;4.742;2023-03-16T12:05:56;101130.25;;;14.52;100.00
54882;BME280;40775;51.448;4.742;2023-03-16T12:11:29;101120.59;;;14.55;100.00
54882;BME280;40775;51.448;4.742;2023-03-16T12:17:02;101095.03;;;14.53;100.00
54882;BME280;40775;51.448;4.742;2023-03-16T12:19:59;101102.13;;;14.58;100.00
54882;BME280;40775;51.448;4.742;2023-03-16T12:22:37;101092.44;;;14.60;100.00
54882;BME280;40775;51.448;4.742;2023-03-16T12:25:24;101093.31;;;14.59;100.00
54882;BME280;40775;51.448;4.742;2023-03-16T12:27:59;101081.00;;;14.61;100.00
54882;BME280;40775;51.448;4.742;2023-03-16T12:30:44;101078.34;;;14.59;100.00
54882;BME280;40775;51.448;4.742;2023-03-16T12:44:18;101061.66;;;14.68;100.00
54882;BME280;40775;51.448;4.742;2023-03-16T12:46:56;101060.78;;;14.69;100.00
54882;BME280;40775;51.448;4.742;2023-03-16T12:49:32;101046.69;;;14.70;100.00
54882;BME280;40775;51.448;4.742;2023-03-16T12:52:04;101051.13;;;14.74;100.00
54882;BME280;40775;51.448;4.742;2023-03-16T12:54:32;101050.25;;;14.75;100.00
54882;BME280;40775;51.448;4.742;2023-03-16T12:57:07;101044.97;;;14.75;100.00
54882;BME280;40775;51.448;4.742;2023-03-16T12:59:44;101037.91;;;14.74;100.00
54882;BME280;40775;51.448;4.742;2023-03-16T13:02:29;101036.16;;;14.76;100.00
54882;BME280;40775;51.448;4.742;2023-03-16T13:05:26;101043.22;;;14.78;100.00
54882;BME280;40775;51.448;4.742;2023-03-16T13:10:39;101022.13;;;14.83;100.00
54882;BME280;40775;51.448;4.742;2023-03-16T13:13:15;101023.88;;;14.79;100.00
54882;BME280;40775;51.448;4.742;2023-03-16T13:15:44;101014.16;;;14.78;100.00
54882;BME280;40775;51.448;4.742;2023-03-16T13:21:12;101001.00;;;14.83;100.00
54882;BME280;40775;51.448;4.742;2023-03-16T13:23:57;100993.94;;;14.85;100.00
54882;BME280;40775;51.448;4.742;2023-03-16T13:31:50;100996.63;;;14.93;100.00
54882;BME280;40775;51.448;4.742;2023-03-16T13:34:37;100996.63;;;14.90;100.00
54882;BME280;40775;51.448;4.742;2023-03-16T13:37:13;100997.50;;;14.93;100.00
54882;BME280;40775;51.448;4.742;2023-03-16T13:40:03;100985.19;;;14.94;100.00
54882;BME280;40775;51.448;4.742;2023-03-16T13:42:32;100988.69;;;14.94;100.00
54882;BME280;40775;51.448;4.742;2023-03-16T13:45:13;100976.38;;;14.95;100.00
54882;BME280;40775;51.448;4.742;2023-03-16T13:47:43;100983.41;;;14.94;100.00
54882;BME280;40775;51.448;4.742;2023-03-16T13:50:13;100981.66;;;14.96;100.00
54882;BME280;40775;51.448;4.742;2023-03-16T13:52:42;100976.38;;;14.98;100.00
54882;BME280;40775;51.448;4.742;2023-03-16T13:55:16;100965.78;;;14.96;100.00
54882;BME280;40775;51.448;4.742;2023-03-16T13:57:45;100963.16;;;14.99;100.00
54882;BME280;40775;51.448;4.742;2023-03-16T14:00:23;100957.00;;;15.00;100.00
54882;BME280;40775;51.448;4.742;2023-03-16T14:02:55;100953.47;;;15.04;100.00
54882;BME280;40775;51.448;4.742;2023-03-16T14:05:29;100952.59;;;15.05;100.00
54882;BME280;40775;51.448;4.742;2023-03-16T14:07:57;100952.59;;;15.04;100.00
54882;BME280;40775;51.448;4.742;2023-03-16T14:10:34;100948.19;;;15.04;100.00
54882;BME280;40775;51.448;4.742;2023-03-16T14:13:25;100943.78;;;15.06;100.00
54882;BME280;40775;51.448;4.742;2023-03-16T14:16:14;100951.72;;;15.06;100.00
54882;BME280;40775;51.448;4.742;2023-03-16T14:18:47;100937.66;;;15.10;100.00
54882;BME280;40775;51.448;4.742;2023-03-16T14:21:24;100931.50;;;15.11;100.00
54882;BME280;40775;51.448;4.742;2023-03-16T14:26:26;100925.31;;;15.12;100.00
54882;BME280;40775;51.448;4.742;2023-03-16T14:31:50;100918.28;;;15.13;100.00
54882;BME280;40775;51.448;4.742;2023-03-16T14:34:36;100913.88;;;15.13;100.00
54882;BME280;40775;51.448;4.742;2023-03-16T14:37:14;100905.94;;;15.13;100.00